Time;durP1;ratioP1;P1;durP2;ratioP2;P2;SDS_P1;SDS_P2;PMS_P1;PMS_P2;Temp;Humidity;BMP_temperature;BMP_pressure;BME280_temperature;BME280_humidity;BME280_pressure;Samples;Min_cycle;Max_cycle;Signal;HPM_P1;HPM_P2
2021/01/28 00:01:50;;;;;;;80.05;17.38;;;;;;;;;;5031653;28;20014;-70
2021/01/28 00:04:15;;;;;;;90.82;18.38;;;;;;;;;;5032580;28;20104;-69
2021/01/28 00:06:41;;;;;;;81.80;16.45;;;;;;;;;;5032570;28;20709;-70
2021/01/28 00:09:06;;;;;;;65.60;17.00;;;;;;;;;;5031945;28;20021;-70
2021/01/28 00:11:31;;;;;;;83.68;16.63;;;;;;;;;;5032400;28;20136;-69
2021/01/28 00:13:57;;;;;;;55.40;15.65;;;;;;;;;;5032473;28;20021;-67
2021/01/28 00:16:22;;;;;;;63.10;15.75;;;;;;;;;;5031749;28;20034;-67
2021/01/28 00:18:48;;;;;;;61.13;14.57;;;;;;;;;;5031869;28;20034;-67
2021/01/28 00:21:13;;;;;;;63.20;15.68;;;;;;;;;;5031356;28;20106;-67
2021/01/28 00:23:38;;;;;;;53.00;14.75;;;;;;;;;;5032584;28;20014;-67
2021/01/28 00:26:03;;;;;;;46.53;14.35;;;;;;;;;;5032230;28;20087;-67
2021/01/28 00:28:29;;;;;;;37.22;12.10;;;;;;;;;;5032479;28;20403;-68
2021/01/28 00:30:54;;;;;;;31.95;10.25;;;;;;;;;;5032145;28;20040;-69
2021/01/28 00:33:21;;;;;;;22.85;8.70;;;;;;;;;;5032184;28;20117;-69
2021/01/28 00:35:47;;;;;;;21.52;7.55;;;;;;;;;;5032181;28;20037;-69
2021/01/28 00:38:17;;;;;;;20.80;7.68;;;;;;;;;;5032119;28;20029;-70
2021/01/28 00:40:43;;;;;;;16.45;7.63;;;;;;;;;;5032002;28;20457;-69
2021/01/28 00:43:08;;;;;;;13.55;5.97;;;;;;;;;;5032166;28;20105;-70
2021/01/28 00:45:34;;;;;;;11.10;5.45;;;;;;;;;;5032281;28;20021;-67
2021/01/28 00:47:59;;;;;;;12.18;5.57;;;;;;;;;;5032047;28;20043;-67
2021/01/28 00:50:27;;;;;;;15.57;6.20;;;;;;;;;;5033216;28;20450;-67
2021/01/28 00:52:52;;;;;;;11.57;5.68;;;;;;;;;;5035976;28;20473;-67
2021/01/28 00:55:18;;;;;;;12.52;5.72;;;;;;;;;;5035868;28;20080;-67
2021/01/28 00:57:44;;;;;;;11.13;5.30;;;;;;;;;;5035902;28;20018;-67
2021/01/28 01:00:12;;;;;;;10.15;5.00;;;;;;;;;;5035926;28;20473;-67
2021/01/28 01:02:37;;;;;;;10.43;5.03;;;;;;;;;;5035804;28;20052;-67
2021/01/28 01:05:03;;;;;;;9.63;4.10;;;;;;;;;;5035770;28;20057;-67
2021/01/28 01:07:28;;;;;;;10.90;4.97;;;;;;;;;;5035369;28;20022;-67
2021/01/28 01:09:53;;;;;;;12.00;4.82;;;;;;;;;;5035474;28;20068;-67
2021/01/28 01:12:19;;;;;;;13.23;5.38;;;;;;;;;;5035096;28;20095;-67
2021/01/28 01:14:44;;;;;;;15.57;5.63;;;;;;;;;;5035511;28;20022;-67
2021/01/28 01:17:10;;;;;;;12.30;5.70;;;;;;;;;;5035528;28;20059;-67
2021/01/28 01:19:35;;;;;;;10.73;5.30;;;;;;;;;;5035602;28;20029;-69
2021/01/28 01:22:00;;;;;;;15.80;6.65;;;;;;;;;;5035325;28;20445;-67
2021/01/28 01:24:26;;;;;;;13.63;5.30;;;;;;;;;;5035540;28;20060;-67
2021/01/28 01:26:51;;;;;;;14.90;6.10;;;;;;;;;;5035292;28;20031;-67
2021/01/28 01:29:16;;;;;;;17.05;6.55;;;;;;;;;;5035404;28;20021;-67
2021/01/28 01:31:42;;;;;;;13.00;6.55;;;;;;;;;;5035241;28;20112;-67
2021/01/28 01:34:07;;;;;;;19.20;7.15;;;;;;;;;;5034871;28;20080;-67
2021/01/28 01:36:32;;;;;;;22.00;7.70;;;;;;;;;;5035112;28;20034;-67
2021/01/28 01:38:57;;;;;;;17.70;7.85;;;;;;;;;;5035184;28;20033;-67
2021/01/28 01:41:28;;;;;;;15.38;7.90;;;;;;;;;;5034651;28;20053;-67
2021/01/28 01:43:57;;;;;;;15.98;8.00;;;;;;;;;;5034786;28;20378;-67
2021/01/28 01:46:22;;;;;;;19.33;7.63;;;;;;;;;;5033644;28;20045;-67
2021/01/28 01:48:50;;;;;;;17.48;7.85;;;;;;;;;;5035112;28;20488;-67
2021/01/28 01:51:21;;;;;;;23.02;7.50;;;;;;;;;;5034614;28;20466;-66
2021/01/28 01:53:51;;;;;;;31.63;7.75;;;;;;;;;;5034311;28;20120;-67
2021/01/28 01:56:18;;;;;;;21.95;7.95;;;;;;;;;;5034205;28;20163;-67
2021/01/28 01:58:43;;;;;;;24.02;7.93;;;;;;;;;;5034855;28;20038;-67
2021/01/28 02:01:09;;;;;;;34.10;8.77;;;;;;;;;;5034106;28;20029;-67
2021/01/28 02:03:36;;;;;;;490.30;21.48;;;;;;;;;;5034659;28;20115;-67
2021/01/28 02:06:05;;;;;;;102.45;10.23;;;;;;;;;;5034509;28;20045;-67
2021/01/28 02:08:30;;;;;;;38.85;9.65;;;;;;;;;;5034485;28;20036;-70
2021/01/28 02:10:56;;;;;;;33.10;9.63;;;;;;;;;;5034595;28;20045;-70
2021/01/28 02:13:21;;;;;;;30.35;10.00;;;;;;;;;;5034448;28;20030;-70
2021/01/28 02:15:48;;;;;;;28.05;10.05;;;;;;;;;;5034833;28;20111;-70
2021/01/28 02:18:13;;;;;;;25.25;9.05;;;;;;;;;;5034320;28;20018;-70
2021/01/28 02:20:47;;;;;;;26.58;9.13;;;;;;;;;;5034133;28;20514;-70
2021/01/28 02:23:15;;;;;;;28.02;10.38;;;;;;;;;;5034213;28;20048;-70
2021/01/28 02:25:43;;;;;;;30.98;10.90;;;;;;;;;;5034336;28;20040;-69
2021/01/28 02:28:10;;;;;;;31.25;9.90;;;;;;;;;;5034146;28;20041;-69
2021/01/28 02:30:36;;;;;;;36.75;11.07;;;;;;;;;;5034301;28;20029;-69
2021/01/28 02:33:02;;;;;;;31.42;11.70;;;;;;;;;;5033968;28;20030;-69
2021/01/28 02:35:28;;;;;;;38.10;11.45;;;;;;;;;;5034133;28;20037;-69
2021/01/28 02:37:55;;;;;;;48.00;13.27;;;;;;;;;;5033998;28;20033;-69
2021/01/28 02:40:22;;;;;;;243.50;17.60;;;;;;;;;;5034010;28;20029;-69
2021/01/28 02:42:47;;;;;;;112.95;14.63;;;;;;;;;;5033782;28;20038;-69
2021/01/28 02:45:16;;;;;;;36.95;11.15;;;;;;;;;;5033873;28;20025;-69
2021/01/28 02:47:41;;;;;;;29.55;10.40;;;;;;;;;;5033923;28;20049;-69
2021/01/28 02:50:07;;;;;;;28.15;9.77;;;;;;;;;;5033732;28;20118;-69
2021/01/28 02:52:32;;;;;;;37.78;11.10;;;;;;;;;;5033745;28;20029;-69
2021/01/28 02:54:57;;;;;;;28.08;9.90;;;;;;;;;;5033911;28;20469;-69
2021/01/28 02:57:22;;;;;;;31.35;9.95;;;;;;;;;;5026590;28;20041;-68
2021/01/28 02:59:48;;;;;;;19.58;7.82;;;;;;;;;;5031499;28;20493;-69
2021/01/28 03:02:15;;;;;;;11.60;4.68;;;;;;;;;;5032684;28;20025;-69
2021/01/28 03:04:41;;;;;;;9.02;3.30;;;;;;;;;;5033581;28;20099;-69
2021/01/28 03:07:07;;;;;;;6.85;2.60;;;;;;;;;;5032810;28;20029;-69
2021/01/28 03:09:33;;;;;;;4.90;2.33;;;;;;;;;;5033415;28;20025;-69
2021/01/28 03:11:58;;;;;;;5.13;2.08;;;;;;;;;;5033357;28;20049;-69
2021/01/28 03:14:24;;;;;;;3.92;1.25;;;;;;;;;;5032786;28;20095;-69
2021/01/28 03:16:49;;;;;;;2.63;1.40;;;;;;;;;;5033290;28;20041;-69
2021/01/28 03:19:14;;;;;;;5.07;1.52;;;;;;;;;;5033318;28;20530;-69
2021/01/28 03:21:40;;;;;;;3.95;1.63;;;;;;;;;;5033168;28;20086;-69
2021/01/28 03:24:05;;;;;;;4.95;1.90;;;;;;;;;;5033195;28;20021;-69
2021/01/28 03:26:31;;;;;;;2.92;1.40;;;;;;;;;;5033093;28;20662;-69
2021/01/28 03:28:56;;;;;;;3.28;1.48;;;;;;;;;;5033413;28;20030;-69
2021/01/28 03:31:21;;;;;;;2.83;1.40;;;;;;;;;;5031820;28;20032;-69
2021/01/28 03:33:47;;;;;;;4.95;1.30;;;;;;;;;;5033035;28;20040;-69
2021/01/28 03:36:12;;;;;;;3.33;1.63;;;;;;;;;;5032876;28;20045;-69
2021/01/28 03:38:37;;;;;;;3.95;1.45;;;;;;;;;;5032970;28;20100;-69
2021/01/28 03:41:03;;;;;;;11.98;3.00;;;;;;;;;;5032849;28;20025;-69
2021/01/28 03:43:29;;;;;;;14.25;2.58;;;;;;;;;;5032648;28;20061;-69
2021/01/28 03:45:54;;;;;;;8.07;1.45;;;;;;;;;;5032998;28;20025;-69
2021/01/28 03:48:20;;;;;;;10.20;2.10;;;;;;;;;;5032663;28;20496;-69
2021/01/28 03:50:45;;;;;;;12.30;2.90;;;;;;;;;;5032966;28;20033;-69
2021/01/28 03:53:11;;;;;;;9.73;2.40;;;;;;;;;;5032649;28;20438;-69
2021/01/28 03:55:36;;;;;;;6.05;2.22;;;;;;;;;;5032801;28;20045;-69
2021/01/28 03:58:01;;;;;;;4.93;1.92;;;;;;;;;;5032262;28;20390;-69
2021/01/28 04:00:28;;;;;;;5.15;1.92;;;;;;;;;;5032525;28;20045;-69
2021/01/28 04:02:54;;;;;;;4.35;1.90;;;;;;;;;;5032579;28;20033;-69
2021/01/28 04:05:19;;;;;;;7.18;1.98;;;;;;;;;;5032678;28;20045;-69
2021/01/28 04:07:45;;;;;;;2.75;1.40;;;;;;;;;;5032602;28;20463;-69
2021/01/28 04:10:11;;;;;;;3.10;1.60;;;;;;;;;;5032243;28;20394;-69
2021/01/28 04:12:37;;;;;;;4.40;1.60;;;;;;;;;;5032621;28;20045;-69
2021/01/28 04:15:03;;;;;;;1.30;0.80;;;;;;;;;;5032477;28;20098;-69
2021/01/28 04:17:29;;;;;;;3.05;1.00;;;;;;;;;;5032437;28;20033;-69
2021/01/28 04:19:54;;;;;;;3.22;1.15;;;;;;;;;;5032528;28;20025;-69
2021/01/28 04:22:19;;;;;;;2.30;1.20;;;;;;;;;;5032347;28;20045;-69
2021/01/28 04:24:44;;;;;;;3.75;1.30;;;;;;;;;;5034136;28;20059;-69
2021/01/28 04:27:10;;;;;;;5.32;2.10;;;;;;;;;;5036404;28;20049;-69
2021/01/28 04:29:35;;;;;;;4.15;1.90;;;;;;;;;;5036597;28;20022;-69
2021/01/28 04:32:00;;;;;;;5.82;2.00;;;;;;;;;;5036340;28;20122;-69
2021/01/28 04:34:26;;;;;;;4.57;2.00;;;;;;;;;;5036339;28;20373;-68
2021/01/28 04:36:51;;;;;;;8.88;2.97;;;;;;;;;;5035795;28;20437;-69
2021/01/28 04:39:17;;;;;;;9.27;3.20;;;;;;;;;;5036427;28;20041;-69
2021/01/28 04:41:42;;;;;;;7.70;3.00;;;;;;;;;;5035796;28;20397;-69
2021/01/28 04:44:07;;;;;;;10.40;4.40;;;;;;;;;;5036285;28;20053;-69
2021/01/28 04:46:41;;;;;;;9.23;4.45;;;;;;;;;;5035988;28;20043;-68
2021/01/28 04:49:09;;;;;;;10.75;3.30;;;;;;;;;;5036205;28;20025;-69
2021/01/28 04:51:34;;;;;;;5.82;2.88;;;;;;;;;;5035588;28;20462;-68
2021/01/28 04:54:04;;;;;;;7.78;2.80;;;;;;;;;;5036411;28;20124;-69
2021/01/28 04:56:31;;;;;;;6.07;2.72;;;;;;;;;;5035905;28;20048;-68
2021/01/28 04:59:11;;;;;;;5.78;2.67;;;;;;;;;;5035829;28;20025;-69
2021/01/28 05:01:37;;;;;;;4.35;2.30;;;;;;;;;;5035751;28;20112;-68
2021/01/28 05:04:04;;;;;;;5.57;2.47;;;;;;;;;;5034536;28;20117;-69
2021/01/28 05:06:31;;;;;;;6.32;2.70;;;;;;;;;;5035791;28;20095;-68
2021/01/28 05:08:56;;;;;;;7.22;2.67;;;;;;;;;;5035620;28;20036;-69
2021/01/28 05:11:27;;;;;;;4.40;2.05;;;;;;;;;;5035618;28;20426;-69
2021/01/28 05:13:52;;;;;;;4.40;2.20;;;;;;;;;;5035839;28;20046;-69
2021/01/28 05:16:37;;;;;;;5.22;2.67;;;;;;;;;;5035524;28;20037;-69
2021/01/28 05:19:04;;;;;;;3.55;2.10;;;;;;;;;;5031439;28;20029;-68
2021/01/28 05:21:37;;;;;;;6.20;1.40;;;;;;;;;;5035511;28;20048;-68
2021/01/28 05:24:05;;;;;;;3.55;1.30;;;;;;;;;;5035395;28;20021;-69
2021/01/28 05:26:35;;;;;;;3.80;1.50;;;;;;;;;;5035428;28;20122;-68
2021/01/28 05:29:32;;;;;;;8.30;1.60;;;;;;;;;;5035061;28;20508;-69
2021/01/28 05:31:58;;;;;;;3.95;1.80;;;;;;;;;;5022944;28;20080;-69
2021/01/28 05:34:25;;;;;;;5.93;2.10;;;;;;;;;;5035311;28;20041;-68
2021/01/28 05:36:56;;;;;;;5.03;2.47;;;;;;;;;;5034172;28;20527;-69
2021/01/28 05:39:28;;;;;;;5.30;2.58;;;;;;;;;;5035261;28;20116;-68
2021/01/28 05:42:06;;;;;;;6.43;2.10;;;;;;;;;;5034900;28;20040;-69
2021/01/28 05:44:33;;;;;;;5.90;1.98;;;;;;;;;;5035083;28;20507;-68
2021/01/28 05:47:12;;;;;;;3.75;1.90;;;;;;;;;;5034654;28;20497;-68
2021/01/28 05:49:41;;;;;;;7.70;1.95;;;;;;;;;;5035311;28;20029;-69
2021/01/28 05:52:19;;;;;;;2.85;1.50;;;;;;;;;;5035066;28;20037;-68
2021/01/28 05:55:00;;;;;;;4.55;1.30;;;;;;;;;;5034962;28;20207;-69
2021/01/28 05:57:28;;;;;;;3.05;1.35;;;;;;;;;;5034630;28;20112;-69
2021/01/28 06:00:06;;;;;;;3.90;1.15;;;;;;;;;;5027676;28;20033;-68
2021/01/28 06:02:40;;;;;;;3.33;0.70;;;;;;;;;;5032146;28;20450;-69
2021/01/28 06:05:10;;;;;;;2.22;0.70;;;;;;;;;;5033682;28;20029;-69
2021/01/28 06:07:38;;;;;;;4.80;1.15;;;;;;;;;;5034209;28;20534;-69
2021/01/28 06:10:06;;;;;;;5.63;1.05;;;;;;;;;;5034436;28;20021;-69
2021/01/28 06:12:49;;;;;;;1.52;0.68;;;;;;;;;;5033764;28;20390;-69
2021/01/28 06:15:20;;;;;;;3.90;0.80;;;;;;;;;;5034082;28;20523;-69
2021/01/28 06:17:58;;;;;;;5.88;0.65;;;;;;;;;;5034460;28;20171;-69
2021/01/28 06:20:32;;;;;;;2.05;0.75;;;;;;;;;;5034454;28;20029;-69
2021/01/28 06:23:13;;;;;;;1.30;0.73;;;;;;;;;;5034263;28;20025;-68
2021/01/28 06:25:44;;;;;;;2.80;0.90;;;;;;;;;;5034337;28;20353;-69
2021/01/28 06:28:28;;;;;;;3.30;0.60;;;;;;;;;;5034212;28;20079;-68
2021/01/28 06:30:53;;;;;;;5.00;0.52;;;;;;;;;;5034134;28;20068;-68
2021/01/28 06:33:27;;;;;;;3.80;0.68;;;;;;;;;;5033659;28;20033;-69
2021/01/28 06:35:55;;;;;;;4.90;0.70;;;;;;;;;;5034149;28;20053;-69
2021/01/28 06:38:29;;;;;;;4.60;0.73;;;;;;;;;;5033921;28;20061;-68
2021/01/28 06:40:58;;;;;;;1.83;0.60;;;;;;;;;;5033980;28;20056;-68
2021/01/28 06:43:38;;;;;;;3.05;0.65;;;;;;;;;;5034008;28;20034;-69
2021/01/28 06:46:26;;;;;;;3.33;0.60;;;;;;;;;;5033980;28;20065;-69
2021/01/28 06:48:54;;;;;;;2.40;0.60;;;;;;;;;;5032859;28;20033;-69
2021/01/28 06:51:23;;;;;;;1.80;0.63;;;;;;;;;;5033796;28;20034;-69
2021/01/28 06:53:52;;;;;;;4.40;0.60;;;;;;;;;;5033774;28;20061;-69
2021/01/28 06:56:20;;;;;;;4.90;0.90;;;;;;;;;;5033847;28;20120;-69
2021/01/28 06:58:51;;;;;;;2.00;0.43;;;;;;;;;;5033411;28;20466;-69
2021/01/28 07:01:35;;;;;;;2.80;0.80;;;;;;;;;;5033712;28;20033;-69
2021/01/28 07:04:04;;;;;;;3.15;0.68;;;;;;;;;;5033531;28;20034;-69
2021/01/28 07:06:32;;;;;;;2.72;0.50;;;;;;;;;;5033525;28;20116;-69
2021/01/28 07:09:29;;;;;;;2.60;1.00;;;;;;;;;;5033404;28;20116;-69
2021/01/28 07:11:57;;;;;;;3.92;0.90;;;;;;;;;;5020828;28;20099;-69
2021/01/28 07:14:22;;;;;;;5.45;0.98;;;;;;;;;;5033420;28;20115;-69
2021/01/28 07:16:52;;;;;;;3.53;0.70;;;;;;;;;;5033371;28;20513;-69
2021/01/28 07:19:33;;;;;;;5.47;0.85;;;;;;;;;;5033279;28;20461;-69
2021/01/28 07:22:15;;;;;;;6.63;1.60;;;;;;;;;;5032851;28;20379;-68
2021/01/28 07:24:40;;;;;;;15.35;4.18;;;;;;;;;;5033170;28;20061;-69
2021/01/28 07:27:07;;;;;;;12.93;2.10;;;;;;;;;;5033075;28;20092;-68
2021/01/28 07:29:50;;;;;;;16.48;1.60;;;;;;;;;;5033153;28;20075;-68
2021/01/28 07:32:21;;;;;;;14.45;2.00;;;;;;;;;;5031720;28;20083;-69
2021/01/28 07:35:06;;;;;;;15.15;3.13;;;;;;;;;;5032807;28;20474;-69
2021/01/28 07:37:31;;;;;;;15.32;3.95;;;;;;;;;;5032655;28;20037;-68
2021/01/28 07:39:57;;;;;;;15.35;2.50;;;;;;;;;;5031696;28;20544;-68
2021/01/28 07:42:22;;;;;;;28.70;5.45;;;;;;;;;;5032630;28;20036;-69
2021/01/28 07:44:49;;;;;;;16.58;3.50;;;;;;;;;;5032946;28;20095;-68
2021/01/28 07:47:34;;;;;;;20.38;3.90;;;;;;;;;;5032747;28;20037;-68
2021/01/28 07:50:09;;;;;;;42.67;11.32;;;;;;;;;;5032514;28;20037;-69
2021/01/28 07:52:36;;;;;;;21.13;4.40;;;;;;;;;;5032579;28;20088;-69
2021/01/28 07:55:02;;;;;;;19.90;4.30;;;;;;;;;;5032802;28;20110;-69
2021/01/28 07:57:28;;;;;;;20.48;4.55;;;;;;;;;;5032474;28;20053;-69
2021/01/28 08:00:07;;;;;;;15.02;2.95;;;;;;;;;;5032366;28;20017;-69
2021/01/28 08:02:34;;;;;;;24.10;4.00;;;;;;;;;;5032225;28;20036;-68
2021/01/28 08:04:59;;;;;;;19.08;2.80;;;;;;;;;;5032565;28;20041;-69
2021/01/28 08:07:31;;;;;;;21.38;3.28;;;;;;;;;;5032360;28;20031;-69
2021/01/28 08:09:57;;;;;;;17.17;2.97;;;;;;;;;;5032694;28;20080;-68
2021/01/28 08:12:31;;;;;;;30.17;3.33;;;;;;;;;;5032187;28;20049;-69
2021/01/28 08:14:56;;;;;;;21.90;3.88;;;;;;;;;;5032750;28;20029;-69
2021/01/28 08:17:26;;;;;;;16.73;3.17;;;;;;;;;;5032341;28;20045;-69
2021/01/28 08:20:11;;;;;;;22.65;2.70;;;;;;;;;;5032384;28;20021;-70
2021/01/28 08:22:47;;;;;;;20.83;3.60;;;;;;;;;;5032281;28;20026;-69
2021/01/28 08:25:13;;;;;;;32.35;4.43;;;;;;;;;;5032357;28;20080;-70
2021/01/28 08:27:39;;;;;;;25.48;3.78;;;;;;;;;;5032063;28;20026;-70
2021/01/28 08:30:04;;;;;;;22.23;3.42;;;;;;;;;;5032441;28;20049;-70
2021/01/28 08:32:30;;;;;;;27.95;3.40;;;;;;;;;;5032213;28;20091;-70
2021/01/28 08:35:00;;;;;;;21.73;2.78;;;;;;;;;;5032381;28;20470;-70
2021/01/28 08:37:27;;;;;;;18.02;3.00;;;;;;;;;;5032135;28;20042;-70
2021/01/28 08:39:53;;;;;;;30.20;5.20;;;;;;;;;;5032333;28;20022;-70
2021/01/28 08:42:20;;;;;;;22.80;4.38;;;;;;;;;;5031721;28;20116;-68
2021/01/28 08:44:47;;;;;;;25.85;4.68;;;;;;;;;;5032167;28;20034;-68
2021/01/28 08:47:14;;;;;;;24.00;3.28;;;;;;;;;;5031887;28;20351;-68
2021/01/28 08:49:40;;;;;;;18.48;3.17;;;;;;;;;;5032381;28;20037;-68
2021/01/28 08:52:14;;;;;;;20.90;3.28;;;;;;;;;;5032072;28;20040;-67
2021/01/28 08:54:40;;;;;;;29.35;4.47;;;;;;;;;;5032047;28;20061;-68
2021/01/28 08:57:07;;;;;;;20.02;3.13;;;;;;;;;;5031593;28;20425;-67
2021/01/28 08:59:37;;;;;;;22.35;3.47;;;;;;;;;;5022218;28;20042;-69
2021/01/28 09:02:02;;;;;;;24.67;3.10;;;;;;;;;;5029968;28;20068;-70
2021/01/28 09:04:40;;;;;;;29.50;4.50;;;;;;;;;;5029269;28;20429;-70
2021/01/28 09:07:05;;;;;;;21.73;4.95;;;;;;;;;;5027949;28;20034;-69
2021/01/28 09:09:31;;;;;;;22.40;4.97;;;;;;;;;;5031080;28;20017;-70
2021/01/28 09:12:15;;;;;;;28.33;4.10;;;;;;;;;;5047284;28;20068;-70
2021/01/28 09:14:40;;;;;;;24.90;4.13;;;;;;;;;;5041178;28;20060;-70
2021/01/28 09:17:18;;;;;;;24.23;3.60;;;;;;;;;;5040517;28;20084;-70
2021/01/28 09:19:52;;;;;;;21.73;4.25;;;;;;;;;;5048924;28;20052;-70
2021/01/28 09:22:43;;;;;;;24.02;4.03;;;;;;;;;;5037768;28;20041;-70
2021/01/28 09:25:21;;;;;;;25.40;4.18;;;;;;;;;;5038506;28;20498;-69
2021/01/28 09:28:04;;;;;;;27.13;3.90;;;;;;;;;;5041017;28;20029;-70
2021/01/28 09:30:31;;;;;;;23.52;4.95;;;;;;;;;;5033192;28;20116;-70
2021/01/28 09:32:56;;;;;;;28.77;4.63;;;;;;;;;;5032957;28;20055;-70
2021/01/28 09:35:23;;;;;;;30.83;4.88;;;;;;;;;;5032443;28;20024;-70
2021/01/28 09:38:00;;;;;;;23.58;4.78;;;;;;;;;;5032213;28;20490;-70
2021/01/28 09:40:29;;;;;;;25.83;4.35;;;;;;;;;;5032450;28;20068;-70
2021/01/28 09:43:13;;;;;;;28.00;5.28;;;;;;;;;;5032386;28;20076;-70
2021/01/28 09:45:38;;;;;;;28.40;4.10;;;;;;;;;;5033979;28;20073;-70
2021/01/28 09:48:04;;;;;;;20.92;3.90;;;;;;;;;;5034424;28;20060;-70
2021/01/28 09:50:30;;;;;;;29.30;4.22;;;;;;;;;;5034270;28;20434;-70
2021/01/28 09:52:55;;;;;;;31.30;4.68;;;;;;;;;;5033977;28;20047;-70
2021/01/28 09:55:24;;;;;;;27.38;4.32;;;;;;;;;;5028972;28;20041;-70
2021/01/28 09:57:50;;;;;;;23.13;3.85;;;;;;;;;;5024573;28;20053;-70
2021/01/28 10:00:17;;;;;;;29.08;3.92;;;;;;;;;;5026578;28;20103;-70
2021/01/28 10:02:44;;;;;;;29.48;4.30;;;;;;;;;;5035461;28;20515;-70
2021/01/28 10:05:10;;;;;;;26.45;4.65;;;;;;;;;;5033491;28;20049;-70
2021/01/28 10:07:36;;;;;;;23.13;4.00;;;;;;;;;;5033460;28;20017;-70
2021/01/28 10:10:02;;;;;;;32.50;4.68;;;;;;;;;;5030479;28;20250;-70
2021/01/28 10:12:28;;;;;;;28.15;4.10;;;;;;;;;;5037702;28;20049;-70
2021/01/28 10:14:54;;;;;;;22.15;3.55;;;;;;;;;;5024331;28;20068;-70
2021/01/28 10:17:22;;;;;;;32.25;5.40;;;;;;;;;;5026419;28;20054;-70
2021/01/28 10:19:47;;;;;;;30.10;4.97;;;;;;;;;;5042806;28;20040;-70
2021/01/28 10:22:15;;;;;;;29.25;4.45;;;;;;;;;;5029233;28;20025;-69
2021/01/28 10:24:40;;;;;;;27.90;4.28;;;;;;;;;;5037935;28;20045;-70
2021/01/28 10:27:06;;;;;;;27.20;3.83;;;;;;;;;;5034174;28;20066;-70
2021/01/28 10:29:31;;;;;;;29.73;4.55;;;;;;;;;;5026269;28;20096;-70
2021/01/28 10:31:57;;;;;;;20.52;4.22;;;;;;;;;;5040499;28;20025;-70
2021/01/28 10:34:22;;;;;;;34.40;5.13;;;;;;;;;;5042906;28;20059;-70
2021/01/28 10:36:47;;;;;;;28.58;4.75;;;;;;;;;;5033155;28;20037;-70
2021/01/28 10:39:12;;;;;;;30.90;4.82;;;;;;;;;;5024373;28;20033;-70
2021/01/28 10:41:38;;;;;;;21.10;3.38;;;;;;;;;;5026072;28;20076;-70
2021/01/28 10:44:03;;;;;;;29.92;5.13;;;;;;;;;;5042039;28;20494;-70
2021/01/28 10:46:28;;;;;;;27.73;4.35;;;;;;;;;;5027934;28;20045;-70
2021/01/28 10:48:54;;;;;;;23.10;3.95;;;;;;;;;;5022659;28;20036;-70
2021/01/28 10:51:19;;;;;;;25.42;4.35;;;;;;;;;;5031442;28;20057;-70
2021/01/28 10:53:45;;;;;;;26.85;4.75;;;;;;;;;;5022645;28;20625;-69
2021/01/28 10:56:10;;;;;;;22.92;4.90;;;;;;;;;;5027010;28;20049;-70
2021/01/28 10:58:36;;;;;;;24.63;3.83;;;;;;;;;;5024746;28;20024;-70
2021/01/28 11:01:01;;;;;;;27.52;4.57;;;;;;;;;;5036283;28;20531;-70
2021/01/28 11:03:27;;;;;;;19.67;3.97;;;;;;;;;;5029126;28;20033;-70
2021/01/28 11:05:52;;;;;;;36.08;6.13;;;;;;;;;;5042088;28;20036;-70
2021/01/28 11:08:17;;;;;;;22.65;5.05;;;;;;;;;;5031483;28;20028;-70
2021/01/28 11:10:43;;;;;;;25.10;5.05;;;;;;;;;;5035904;28;20037;-69
2021/01/28 11:13:08;;;;;;;30.17;5.15;;;;;;;;;;5025446;28;20124;-70
2021/01/28 11:15:36;;;;;;;28.65;5.07;;;;;;;;;;5029795;28;20390;-70
2021/01/28 11:18:02;;;;;;;35.80;5.63;;;;;;;;;;5026216;28;20045;-70
2021/01/28 11:20:27;;;;;;;26.85;5.70;;;;;;;;;;5018870;28;20390;-69
2021/01/28 11:22:53;;;;;;;42.33;5.70;;;;;;;;;;5025938;28;20045;-69
2021/01/28 11:25:21;;;;;;;40.85;6.43;;;;;;;;;;5039105;28;20065;-69
2021/01/28 11:27:48;;;;;;;28.05;6.25;;;;;;;;;;5025919;28;20017;-70
2021/01/28 11:30:15;;;;;;;25.67;4.55;;;;;;;;;;5015414;28;20845;-70
2021/01/28 11:32:40;;;;;;;30.60;6.07;;;;;;;;;;5022671;28;20037;-70
2021/01/28 11:35:06;;;;;;;27.90;5.47;;;;;;;;;;5024713;28;20425;-70
2021/01/28 11:37:32;;;;;;;25.88;4.90;;;;;;;;;;5027342;28;20405;-69
2021/01/28 11:39:58;;;;;;;32.97;4.55;;;;;;;;;;5030638;28;20037;-69
2021/01/28 11:42:23;;;;;;;30.80;4.75;;;;;;;;;;5031512;28;20469;-70
2021/01/28 11:44:48;;;;;;;28.23;5.82;;;;;;;;;;5029064;28;20115;-70
2021/01/28 11:47:14;;;;;;;29.98;5.40;;;;;;;;;;5025931;28;20472;-70
2021/01/28 11:49:39;;;;;;;27.67;4.47;;;;;;;;;;5021992;28;20048;-70
2021/01/28 11:52:04;;;;;;;24.55;4.47;;;;;;;;;;5024058;28;20071;-70
2021/01/28 11:54:30;;;;;;;34.53;5.40;;;;;;;;;;5031050;28;20037;-70
2021/01/28 11:56:55;;;;;;;31.73;5.35;;;;;;;;;;5036292;28;20037;-70
2021/01/28 11:59:20;;;;;;;24.15;4.40;;;;;;;;;;5031520;28;21226;-70
2021/01/28 12:01:46;;;;;;;32.85;4.93;;;;;;;;;;5024852;28;20533;-70
2021/01/28 12:04:11;;;;;;;34.92;5.28;;;;;;;;;;5042130;28;20478;-70
2021/01/28 12:06:38;;;;;;;44.58;6.38;;;;;;;;;;5032350;28;20032;-70
2021/01/28 12:09:04;;;;;;;35.63;5.88;;;;;;;;;;5034716;28;20081;-69
2021/01/28 12:11:29;;;;;;;25.27;4.88;;;;;;;;;;5039931;28;20516;-71
2021/01/28 12:13:55;;;;;;;37.25;6.07;;;;;;;;;;5028729;28;20599;-70
2021/01/28 12:16:20;;;;;;;34.63;5.88;;;;;;;;;;5026163;28;20045;-70
2021/01/28 12:18:45;;;;;;;31.33;6.18;;;;;;;;;;5034078;28;20025;-70
2021/01/28 12:21:10;;;;;;;28.05;4.38;;;;;;;;;;5033624;28;20033;-70
2021/01/28 12:23:36;;;;;;;33.53;4.95;;;;;;;;;;5037596;28;20535;-69
2021/01/28 12:26:01;;;;;;;26.13;4.90;;;;;;;;;;5042508;28;20517;-70
2021/01/28 12:28:26;;;;;;;33.85;5.72;;;;;;;;;;5031864;28;20419;-71
2021/01/28 12:30:52;;;;;;;29.67;5.32;;;;;;;;;;5035787;28;20143;-69
2021/01/28 12:33:17;;;;;;;22.52;5.05;;;;;;;;;;5038242;28;20029;-71
2021/01/28 12:35:42;;;;;;;32.50;5.88;;;;;;;;;;5029659;28;20083;-70
2021/01/28 12:38:07;;;;;;;29.60;5.78;;;;;;;;;;5042796;28;20033;-71
2021/01/28 12:40:33;;;;;;;28.48;5.03;;;;;;;;;;5030181;28;20024;-70
2021/01/28 12:42:59;;;;;;;35.45;5.43;;;;;;;;;;5035406;28;20465;-70
2021/01/28 12:45:24;;;;;;;26.05;3.92;;;;;;;;;;5021448;28;20734;-70
2021/01/28 12:47:49;;;;;;;23.15;4.90;;;;;;;;;;5025749;28;20056;-70
2021/01/28 12:50:15;;;;;;;24.73;4.70;;;;;;;;;;5027198;28;20026;-69
2021/01/28 12:52:40;;;;;;;25.10;4.50;;;;;;;;;;5034198;28;20174;-71
2021/01/28 12:55:07;;;;;;;24.30;4.88;;;;;;;;;;5035133;28;20031;-70
2021/01/28 12:57:32;;;;;;;27.17;4.50;;;;;;;;;;5028274;28;20115;-70
2021/01/28 12:59:58;;;;;;;38.40;5.93;;;;;;;;;;5042650;28;20036;-71
2021/01/28 13:02:23;;;;;;;38.92;5.35;;;;;;;;;;5020949;28;20021;-70
2021/01/28 13:04:48;;;;;;;30.30;5.38;;;;;;;;;;5035528;28;20492;-70
2021/01/28 13:07:14;;;;;;;27.20;4.30;;;;;;;;;;5036570;28;20041;-71
2021/01/28 13:09:39;;;;;;;23.08;4.03;;;;;;;;;;5030137;28;20112;-70
2021/01/28 13:12:05;;;;;;;34.17;5.68;;;;;;;;;;5031102;28;21075;-70
2021/01/28 13:14:30;;;;;;;25.52;4.38;;;;;;;;;;5042693;28;20405;-70
2021/01/28 13:16:55;;;;;;;29.85;4.82;;;;;;;;;;5034509;28;20033;-70
2021/01/28 13:19:21;;;;;;;25.52;4.25;;;;;;;;;;5032958;28;20026;-71
2021/01/28 13:21:46;;;;;;;22.15;3.85;;;;;;;;;;5032473;28;20033;-71
2021/01/28 13:24:11;;;;;;;25.45;4.88;;;;;;;;;;5032349;28;20509;-71
2021/01/28 13:26:37;;;;;;;21.50;3.33;;;;;;;;;;5032729;28;20589;-70
2021/01/28 13:29:02;;;;;;;34.22;6.20;;;;;;;;;;5032212;28;20037;-70
2021/01/28 13:31:27;;;;;;;33.17;6.85;;;;;;;;;;5032000;28;20504;-69
2021/01/28 13:33:53;;;;;;;38.08;6.95;;;;;;;;;;5032668;28;20124;-71
2021/01/28 13:36:18;;;;;;;29.83;7.10;;;;;;;;;;5032209;28;20045;-70
2021/01/28 13:38:43;;;;;;;21.70;4.20;;;;;;;;;;5032288;28;20454;-70
2021/01/28 13:41:09;;;;;;;29.15;4.47;;;;;;;;;;5032108;28;20040;-71
2021/01/28 13:43:35;;;;;;;29.17;4.20;;;;;;;;;;5031941;28;20462;-71
2021/01/28 13:46:00;;;;;;;31.50;5.18;;;;;;;;;;5032590;28;20419;-71
2021/01/28 13:48:25;;;;;;;37.20;11.07;;;;;;;;;;5031917;28;20451;-70
2021/01/28 13:50:51;;;;;;;48.42;14.85;;;;;;;;;;5031961;28;20033;-71
2021/01/28 13:53:16;;;;;;;31.10;6.85;;;;;;;;;;5031658;28;20483;-71
2021/01/28 13:55:42;;;;;;;33.53;5.80;;;;;;;;;;5040849;28;20032;-70
2021/01/28 13:58:07;;;;;;;31.63;5.18;;;;;;;;;;5050470;28;20048;-70
2021/01/28 14:00:32;;;;;;;38.72;6.07;;;;;;;;;;5032108;28;20040;-71
2021/01/28 14:02:57;;;;;;;25.85;4.88;;;;;;;;;;5031365;28;20075;-70
2021/01/28 14:05:24;;;;;;;23.50;5.65;;;;;;;;;;5031988;28;20037;-71
2021/01/28 14:07:49;;;;;;;32.42;4.68;;;;;;;;;;5031581;28;20049;-70
2021/01/28 14:10:18;;;;;;;26.88;5.68;;;;;;;;;;5031786;28;20430;-70
2021/01/28 14:12:43;;;;;;;20.48;3.88;;;;;;;;;;5030882;28;20049;-70
2021/01/28 14:15:10;;;;;;;22.13;4.32;;;;;;;;;;5031903;28;20021;-69
2021/01/28 14:17:35;;;;;;;14.75;3.22;;;;;;;;;;5032260;28;20103;-71
2021/01/28 14:20:01;;;;;;;23.20;4.20;;;;;;;;;;5030857;28;20506;-71
2021/01/28 14:22:26;;;;;;;18.73;3.53;;;;;;;;;;5026169;28;20018;-71
2021/01/28 14:24:51;;;;;;;10.55;2.80;;;;;;;;;;5022680;28;20029;-70
2021/01/28 14:27:17;;;;;;;11.07;2.63;;;;;;;;;;5027505;28;20051;-70
2021/01/28 14:29:42;;;;;;;16.92;3.55;;;;;;;;;;5032848;28;20021;-70
2021/01/28 14:32:07;;;;;;;14.70;2.95;;;;;;;;;;5029433;28;20461;-70
2021/01/28 14:34:32;;;;;;;10.88;2.33;;;;;;;;;;5032071;28;20033;-70
2021/01/28 14:36:59;;;;;;;10.82;2.63;;;;;;;;;;5037503;28;20106;-70